Terminal Aerodrome Forecast
Issued by NWS Wilmington, NC

Home | Current Version | Previous Version | Text Only | Print | Product List | Glossary On
Versions: 1 2 3 4 5 6 7 8 9 10 11 12
000
FTUS42 KILM 211100
TAFLBT
TAF
KLBT 211124Z 2112/2212 04006KT P6SM SCT030 BKN050 OVC100
     FM212300 05007KT P6SM -RA SCT010 OVC035
     FM220400 03007KT 5SM -RA BR BKN006 OVC015=

USA.gov is the U.S. government's official web portal to all federal, state and local government web resources and services.